sensor_id;sensor_type;location;lat;lon;timestamp;P1;durP1;ratioP1;P2;durP2;ratioP2
69256;SDS011;56376;53.356;-1.748;2023-01-09T00:02:23;3.37;;;1.43;;
69256;SDS011;56376;53.356;-1.748;2023-01-09T00:04:49;4.07;;;2.00;;
69256;SDS011;56376;53.356;-1.748;2023-01-09T00:07:14;3.63;;;1.80;;
69256;SDS011;56376;53.356;-1.748;2023-01-09T00:09:40;3.93;;;1.90;;
69256;SDS011;56376;53.356;-1.748;2023-01-09T00:12:05;5.37;;;1.80;;
69256;SDS011;56376;53.356;-1.748;2023-01-09T00:14:31;3.43;;;2.10;;
69256;SDS011;56376;53.356;-1.748;2023-01-09T00:16:56;5.53;;;2.10;;
69256;SDS011;56376;53.356;-1.748;2023-01-09T00:19:22;5.70;;;1.90;;
69256;SDS011;56376;53.356;-1.748;2023-01-09T00:21:47;6.60;;;2.00;;
69256;SDS011;56376;53.356;-1.748;2023-01-09T00:24:13;7.03;;;2.30;;
69256;SDS011;56376;53.356;-1.748;2023-01-09T00:26:38;7.00;;;2.40;;
69256;SDS011;56376;53.356;-1.748;2023-01-09T00:29:04;3.67;;;2.13;;
69256;SDS011;56376;53.356;-1.748;2023-01-09T00:31:29;2.93;;;1.70;;
69256;SDS011;56376;53.356;-1.748;2023-01-09T00:34:05;4.23;;;2.07;;
69256;SDS011;56376;53.356;-1.748;2023-01-09T00:36:32;5.73;;;2.13;;
69256;SDS011;56376;53.356;-1.748;2023-01-09T00:38:57;4.90;;;2.13;;
69256;SDS011;56376;53.356;-1.748;2023-01-09T00:43:57;3.20;;;1.70;;
69256;SDS011;56376;53.356;-1.748;2023-01-09T00:46:28;5.87;;;2.30;;
69256;SDS011;56376;53.356;-1.748;2023-01-09T00:48:57;6.17;;;2.37;;
69256;SDS011;56376;53.356;-1.748;2023-01-09T00:51:23;3.83;;;2.20;;
69256;SDS011;56376;53.356;-1.748;2023-01-09T00:53:49;5.33;;;2.83;;
69256;SDS011;56376;53.356;-1.748;2023-01-09T00:56:16;6.27;;;2.27;;
69256;SDS011;56376;53.356;-1.748;2023-01-09T00:58:43;5.97;;;2.60;;
69256;SDS011;56376;53.356;-1.748;2023-01-09T01:01:09;9.77;;;2.93;;
69256;SDS011;56376;53.356;-1.748;2023-01-09T01:03:36;7.40;;;3.03;;
69256;SDS011;56376;53.356;-1.748;2023-01-09T01:06:01;7.27;;;2.50;;
69256;SDS011;56376;53.356;-1.748;2023-01-09T01:08:45;9.20;;;3.55;;
69256;SDS011;56376;53.356;-1.748;2023-01-09T01:11:11;8.00;;;2.80;;
69256;SDS011;56376;53.356;-1.748;2023-01-09T01:13:37;6.27;;;2.60;;
69256;SDS011;56376;53.356;-1.748;2023-01-09T01:16:05;4.57;;;1.80;;
69256;SDS011;56376;53.356;-1.748;2023-01-09T01:18:32;7.53;;;3.07;;
69256;SDS011;56376;53.356;-1.748;2023-01-09T01:20:57;5.53;;;2.33;;
69256;SDS011;56376;53.356;-1.748;2023-01-09T01:23:23;5.57;;;1.87;;
69256;SDS011;56376;53.356;-1.748;2023-01-09T01:25:48;5.87;;;2.00;;
69256;SDS011;56376;53.356;-1.748;2023-01-09T01:28:14;7.43;;;2.50;;
69256;SDS011;56376;53.356;-1.748;2023-01-09T01:30:39;5.73;;;2.10;;
69256;SDS011;56376;53.356;-1.748;2023-01-09T01:33:06;8.27;;;2.10;;
69256;SDS011;56376;53.356;-1.748;2023-01-09T01:35:32;7.27;;;2.50;;
69256;SDS011;56376;53.356;-1.748;2023-01-09T01:37:58;5.93;;;2.87;;
69256;SDS011;56376;53.356;-1.748;2023-01-09T01:40:24;5.20;;;2.27;;
69256;SDS011;56376;53.356;-1.748;2023-01-09T01:42:50;7.63;;;2.20;;
69256;SDS011;56376;53.356;-1.748;2023-01-09T01:45:18;7.47;;;2.90;;
69256;SDS011;56376;53.356;-1.748;2023-01-09T01:50:17;7.13;;;2.40;;
69256;SDS011;56376;53.356;-1.748;2023-01-09T01:52:44;8.27;;;2.40;;
69256;SDS011;56376;53.356;-1.748;2023-01-09T01:55:16;5.07;;;2.37;;
69256;SDS011;56376;53.356;-1.748;2023-01-09T01:57:44;4.37;;;1.73;;
69256;SDS011;56376;53.356;-1.748;2023-01-09T02:00:12;6.77;;;2.20;;
69256;SDS011;56376;53.356;-1.748;2023-01-09T02:02:38;3.97;;;2.17;;
69256;SDS011;56376;53.356;-1.748;2023-01-09T02:05:04;6.43;;;2.03;;
69256;SDS011;56376;53.356;-1.748;2023-01-09T02:07:30;5.97;;;1.87;;
69256;SDS011;56376;53.356;-1.748;2023-01-09T02:09:55;4.63;;;1.90;;
69256;SDS011;56376;53.356;-1.748;2023-01-09T02:12:22;4.43;;;2.20;;
69256;SDS011;56376;53.356;-1.748;2023-01-09T02:15:04;4.47;;;1.90;;
69256;SDS011;56376;53.356;-1.748;2023-01-09T02:25:39;10.63;;;2.73;;
69256;SDS011;56376;53.356;-1.748;2023-01-09T02:28:21;6.20;;;2.40;;
69256;SDS011;56376;53.356;-1.748;2023-01-09T02:31:21;5.17;;;2.23;;
69256;SDS011;56376;53.356;-1.748;2023-01-09T02:34:18;4.93;;;2.20;;
69256;SDS011;56376;53.356;-1.748;2023-01-09T02:39:48;6.13;;;2.30;;
69256;SDS011;56376;53.356;-1.748;2023-01-09T02:42:20;8.02;;;3.47;;
69256;SDS011;56376;53.356;-1.748;2023-01-09T02:44:47;5.50;;;2.10;;
69256;SDS011;56376;53.356;-1.748;2023-01-09T02:49:38;5.30;;;2.77;;
69256;SDS011;56376;53.356;-1.748;2023-01-09T02:52:10;7.60;;;2.30;;
69256;SDS011;56376;53.356;-1.748;2023-01-09T02:55:30;5.87;;;2.43;;
69256;SDS011;56376;53.356;-1.748;2023-01-09T03:03:20;8.67;;;2.53;;
69256;SDS011;56376;53.356;-1.748;2023-01-09T03:05:57;9.07;;;3.00;;
69256;SDS011;56376;53.356;-1.748;2023-01-09T03:08:39;10.47;;;2.67;;
69256;SDS011;56376;53.356;-1.748;2023-01-09T03:11:07;7.77;;;2.73;;
69256;SDS011;56376;53.356;-1.748;2023-01-09T03:13:43;9.57;;;3.20;;
69256;SDS011;56376;53.356;-1.748;2023-01-09T03:16:13;8.83;;;2.93;;
69256;SDS011;56376;53.356;-1.748;2023-01-09T03:18:43;4.07;;;2.13;;
69256;SDS011;56376;53.356;-1.748;2023-01-09T03:21:10;7.60;;;2.40;;
69256;SDS011;56376;53.356;-1.748;2023-01-09T03:23:53;8.20;;;2.70;;
69256;SDS011;56376;53.356;-1.748;2023-01-09T03:26:20;6.73;;;2.57;;
69256;SDS011;56376;53.356;-1.748;2023-01-09T03:28:46;7.67;;;2.17;;
69256;SDS011;56376;53.356;-1.748;2023-01-09T03:31:12;9.07;;;2.40;;
69256;SDS011;56376;53.356;-1.748;2023-01-09T03:33:38;8.50;;;3.33;;
69256;SDS011;56376;53.356;-1.748;2023-01-09T03:36:03;9.23;;;3.63;;
69256;SDS011;56376;53.356;-1.748;2023-01-09T03:38:29;7.37;;;2.47;;
69256;SDS011;56376;53.356;-1.748;2023-01-09T03:40:55;11.27;;;3.77;;
69256;SDS011;56376;53.356;-1.748;2023-01-09T03:43:20;7.60;;;3.03;;
69256;SDS011;56376;53.356;-1.748;2023-01-09T03:45:46;7.93;;;2.70;;
69256;SDS011;56376;53.356;-1.748;2023-01-09T03:48:11;9.13;;;4.03;;
69256;SDS011;56376;53.356;-1.748;2023-01-09T03:50:36;6.83;;;3.20;;
69256;SDS011;56376;53.356;-1.748;2023-01-09T03:53:02;10.37;;;3.10;;
69256;SDS011;56376;53.356;-1.748;2023-01-09T03:55:27;8.33;;;2.90;;
69256;SDS011;56376;53.356;-1.748;2023-01-09T03:57:52;6.97;;;3.50;;
69256;SDS011;56376;53.356;-1.748;2023-01-09T04:00:18;5.97;;;2.70;;
69256;SDS011;56376;53.356;-1.748;2023-01-09T04:02:44;6.63;;;2.40;;
69256;SDS011;56376;53.356;-1.748;2023-01-09T04:05:10;6.43;;;2.43;;
69256;SDS011;56376;53.356;-1.748;2023-01-09T04:07:36;5.03;;;2.10;;
69256;SDS011;56376;53.356;-1.748;2023-01-09T04:10:02;7.00;;;2.03;;
69256;SDS011;56376;53.356;-1.748;2023-01-09T04:12:27;2.43;;;1.73;;
69256;SDS011;56376;53.356;-1.748;2023-01-09T04:14:53;8.67;;;2.73;;
69256;SDS011;56376;53.356;-1.748;2023-01-09T04:17:18;4.67;;;1.93;;
69256;SDS011;56376;53.356;-1.748;2023-01-09T04:19:44;10.23;;;2.83;;
69256;SDS011;56376;53.356;-1.748;2023-01-09T04:22:09;6.07;;;1.83;;
69256;SDS011;56376;53.356;-1.748;2023-01-09T04:24:35;2.83;;;1.83;;
69256;SDS011;56376;53.356;-1.748;2023-01-09T04:27:00;3.10;;;1.90;;
69256;SDS011;56376;53.356;-1.748;2023-01-09T04:29:25;3.33;;;1.70;;
69256;SDS011;56376;53.356;-1.748;2023-01-09T04:31:51;4.50;;;2.30;;
69256;SDS011;56376;53.356;-1.748;2023-01-09T04:34:16;3.03;;;1.83;;
69256;SDS011;56376;53.356;-1.748;2023-01-09T04:36:42;5.60;;;1.70;;
69256;SDS011;56376;53.356;-1.748;2023-01-09T04:39:07;4.07;;;1.63;;
69256;SDS011;56376;53.356;-1.748;2023-01-09T04:41:33;3.30;;;1.60;;
69256;SDS011;56376;53.356;-1.748;2023-01-09T04:44:23;7.87;;;2.10;;
69256;SDS011;56376;53.356;-1.748;2023-01-09T04:46:53;5.90;;;1.90;;
69256;SDS011;56376;53.356;-1.748;2023-01-09T04:49:19;4.27;;;2.47;;
69256;SDS011;56376;53.356;-1.748;2023-01-09T04:51:45;4.17;;;1.43;;
69256;SDS011;56376;53.356;-1.748;2023-01-09T04:54:10;4.23;;;1.43;;
69256;SDS011;56376;53.356;-1.748;2023-01-09T04:56:36;2.63;;;1.40;;
69256;SDS011;56376;53.356;-1.748;2023-01-09T04:59:02;3.30;;;1.43;;
69256;SDS011;56376;53.356;-1.748;2023-01-09T05:01:28;5.00;;;1.40;;
69256;SDS011;56376;53.356;-1.748;2023-01-09T05:03:54;4.47;;;1.63;;
69256;SDS011;56376;53.356;-1.748;2023-01-09T05:06:19;3.10;;;1.30;;
69256;SDS011;56376;53.356;-1.748;2023-01-09T05:08:45;3.40;;;1.53;;
69256;SDS011;56376;53.356;-1.748;2023-01-09T05:11:10;4.63;;;1.70;;
69256;SDS011;56376;53.356;-1.748;2023-01-09T05:13:35;3.60;;;1.50;;
69256;SDS011;56376;53.356;-1.748;2023-01-09T05:16:01;3.47;;;1.80;;
69256;SDS011;56376;53.356;-1.748;2023-01-09T05:18:26;3.03;;;1.23;;
69256;SDS011;56376;53.356;-1.748;2023-01-09T05:20:52;2.93;;;1.27;;
69256;SDS011;56376;53.356;-1.748;2023-01-09T05:23:17;7.10;;;2.17;;
69256;SDS011;56376;53.356;-1.748;2023-01-09T05:25:42;3.03;;;1.40;;
69256;SDS011;56376;53.356;-1.748;2023-01-09T05:28:08;3.10;;;1.43;;
69256;SDS011;56376;53.356;-1.748;2023-01-09T05:30:33;5.80;;;1.57;;
69256;SDS011;56376;53.356;-1.748;2023-01-09T05:32:59;3.63;;;1.40;;
69256;SDS011;56376;53.356;-1.748;2023-01-09T05:35:24;5.70;;;2.03;;
69256;SDS011;56376;53.356;-1.748;2023-01-09T05:37:50;4.90;;;1.60;;
69256;SDS011;56376;53.356;-1.748;2023-01-09T05:40:15;4.43;;;1.60;;
69256;SDS011;56376;53.356;-1.748;2023-01-09T05:42:41;2.87;;;1.30;;
69256;SDS011;56376;53.356;-1.748;2023-01-09T05:45:07;3.00;;;1.40;;
69256;SDS011;56376;53.356;-1.748;2023-01-09T05:47:33;3.30;;;1.50;;
69256;SDS011;56376;53.356;-1.748;2023-01-09T05:49:59;4.30;;;1.63;;
69256;SDS011;56376;53.356;-1.748;2023-01-09T05:52:24;5.03;;;1.47;;
69256;SDS011;56376;53.356;-1.748;2023-01-09T05:54:50;5.73;;;1.40;;
69256;SDS011;56376;53.356;-1.748;2023-01-09T05:57:15;3.40;;;1.17;;
69256;SDS011;56376;53.356;-1.748;2023-01-09T05:59:41;3.27;;;1.17;;
69256;SDS011;56376;53.356;-1.748;2023-01-09T06:02:06;3.73;;;1.87;;
69256;SDS011;56376;53.356;-1.748;2023-01-09T06:04:32;2.57;;;1.10;;
69256;SDS011;56376;53.356;-1.748;2023-01-09T06:06:58;6.07;;;2.53;;
69256;SDS011;56376;53.356;-1.748;2023-01-09T06:09:23;4.60;;;1.47;;
69256;SDS011;56376;53.356;-1.748;2023-01-09T06:11:49;10.93;;;2.70;;
69256;SDS011;56376;53.356;-1.748;2023-01-09T06:14:14;3.90;;;2.27;;
69256;SDS011;56376;53.356;-1.748;2023-01-09T06:16:40;4.03;;;1.63;;
69256;SDS011;56376;53.356;-1.748;2023-01-09T06:19:05;2.30;;;1.50;;
69256;SDS011;56376;53.356;-1.748;2023-01-09T06:21:31;5.83;;;2.03;;
69256;SDS011;56376;53.356;-1.748;2023-01-09T06:23:57;4.53;;;2.03;;
69256;SDS011;56376;53.356;-1.748;2023-01-09T06:26:23;6.13;;;1.80;;
69256;SDS011;56376;53.356;-1.748;2023-01-09T06:28:49;6.43;;;2.20;;
69256;SDS011;56376;53.356;-1.748;2023-01-09T06:31:14;4.27;;;1.40;;
69256;SDS011;56376;53.356;-1.748;2023-01-09T06:33:40;5.17;;;1.80;;
69256;SDS011;56376;53.356;-1.748;2023-01-09T06:36:05;5.40;;;1.60;;
69256;SDS011;56376;53.356;-1.748;2023-01-09T06:38:31;3.73;;;1.30;;
69256;SDS011;56376;53.356;-1.748;2023-01-09T06:40:56;3.47;;;1.60;;
69256;SDS011;56376;53.356;-1.748;2023-01-09T06:43:22;9.50;;;2.50;;
69256;SDS011;56376;53.356;-1.748;2023-01-09T06:45:47;4.80;;;1.67;;
69256;SDS011;56376;53.356;-1.748;2023-01-09T06:48:13;4.37;;;1.37;;
69256;SDS011;56376;53.356;-1.748;2023-01-09T06:50:38;3.03;;;1.20;;
69256;SDS011;56376;53.356;-1.748;2023-01-09T06:53:04;2.80;;;1.40;;
69256;SDS011;56376;53.356;-1.748;2023-01-09T06:55:29;4.33;;;1.37;;
69256;SDS011;56376;53.356;-1.748;2023-01-09T06:57:55;3.93;;;1.50;;
69256;SDS011;56376;53.356;-1.748;2023-01-09T07:00:20;1.80;;;1.30;;
69256;SDS011;56376;53.356;-1.748;2023-01-09T07:02:46;3.90;;;1.60;;
69256;SDS011;56376;53.356;-1.748;2023-01-09T07:05:11;5.57;;;1.50;;
69256;SDS011;56376;53.356;-1.748;2023-01-09T07:07:37;2.47;;;1.40;;
69256;SDS011;56376;53.356;-1.748;2023-01-09T07:10:04;1.43;;;1.33;;
69256;SDS011;56376;53.356;-1.748;2023-01-09T07:12:29;1.63;;;1.20;;
69256;SDS011;56376;53.356;-1.748;2023-01-09T07:14:55;1.30;;;1.20;;
69256;SDS011;56376;53.356;-1.748;2023-01-09T07:17:20;1.03;;;1.00;;
69256;SDS011;56376;53.356;-1.748;2023-01-09T07:19:46;1.97;;;1.30;;
69256;SDS011;56376;53.356;-1.748;2023-01-09T07:22:11;1.60;;;1.50;;
69256;SDS011;56376;53.356;-1.748;2023-01-09T07:24:36;3.50;;;1.77;;
69256;SDS011;56376;53.356;-1.748;2023-01-09T07:27:02;5.97;;;3.30;;
69256;SDS011;56376;53.356;-1.748;2023-01-09T07:29:27;2.97;;;2.10;;
69256;SDS011;56376;53.356;-1.748;2023-01-09T07:31:53;3.53;;;2.20;;
69256;SDS011;56376;53.356;-1.748;2023-01-09T07:34:18;4.23;;;2.90;;
69256;SDS011;56376;53.356;-1.748;2023-01-09T07:36:44;3.67;;;2.60;;
69256;SDS011;56376;53.356;-1.748;2023-01-09T07:39:11;4.73;;;2.90;;
69256;SDS011;56376;53.356;-1.748;2023-01-09T07:41:37;3.60;;;2.50;;
69256;SDS011;56376;53.356;-1.748;2023-01-09T07:44:03;3.57;;;3.10;;
69256;SDS011;56376;53.356;-1.748;2023-01-09T07:46:29;7.87;;;3.50;;
69256;SDS011;56376;53.356;-1.748;2023-01-09T07:48:55;4.17;;;2.90;;
69256;SDS011;56376;53.356;-1.748;2023-01-09T07:51:20;3.50;;;2.53;;
69256;SDS011;56376;53.356;-1.748;2023-01-09T07:53:46;2.20;;;2.00;;
69256;SDS011;56376;53.356;-1.748;2023-01-09T07:56:11;2.33;;;2.00;;
69256;SDS011;56376;53.356;-1.748;2023-01-09T07:58:36;1.67;;;1.40;;
69256;SDS011;56376;53.356;-1.748;2023-01-09T08:01:02;2.30;;;1.50;;
69256;SDS011;56376;53.356;-1.748;2023-01-09T08:03:28;1.40;;;1.30;;
69256;SDS011;56376;53.356;-1.748;2023-01-09T08:05:53;2.83;;;1.53;;
69256;SDS011;56376;53.356;-1.748;2023-01-09T08:08:19;2.37;;;1.40;;
69256;SDS011;56376;53.356;-1.748;2023-01-09T08:10:44;2.13;;;1.60;;
69256;SDS011;56376;53.356;-1.748;2023-01-09T08:13:10;3.43;;;1.70;;
69256;SDS011;56376;53.356;-1.748;2023-01-09T08:15:35;4.17;;;2.83;;
69256;SDS011;56376;53.356;-1.748;2023-01-09T08:18:04;2.13;;;1.43;;
69256;SDS011;56376;53.356;-1.748;2023-01-09T08:20:29;1.97;;;1.10;;
69256;SDS011;56376;53.356;-1.748;2023-01-09T08:22:55;1.53;;;0.70;;
69256;SDS011;56376;53.356;-1.748;2023-01-09T08:25:21;1.13;;;0.70;;
69256;SDS011;56376;53.356;-1.748;2023-01-09T08:27:46;1.37;;;0.60;;
69256;SDS011;56376;53.356;-1.748;2023-01-09T08:30:12;2.33;;;0.70;;
69256;SDS011;56376;53.356;-1.748;2023-01-09T08:32:38;1.67;;;0.70;;
69256;SDS011;56376;53.356;-1.748;2023-01-09T08:35:05;0.40;;;0.40;;
69256;SDS011;56376;53.356;-1.748;2023-01-09T08:37:31;1.10;;;0.70;;
69256;SDS011;56376;53.356;-1.748;2023-01-09T08:39:57;2.07;;;0.90;;
69256;SDS011;56376;53.356;-1.748;2023-01-09T08:42:22;2.77;;;1.03;;
69256;SDS011;56376;53.356;-1.748;2023-01-09T08:45:07;2.50;;;1.38;;
69256;SDS011;56376;53.356;-1.748;2023-01-09T08:47:52;6.63;;;2.67;;
69256;SDS011;56376;53.356;-1.748;2023-01-09T08:50:18;5.63;;;3.10;;
69256;SDS011;56376;53.356;-1.748;2023-01-09T08:52:43;3.13;;;1.53;;
69256;SDS011;56376;53.356;-1.748;2023-01-09T08:55:12;2.50;;;1.40;;
69256;SDS011;56376;53.356;-1.748;2023-01-09T08:57:51;5.83;;;2.53;;
69256;SDS011;56376;53.356;-1.748;2023-01-09T09:00:18;4.20;;;1.80;;
69256;SDS011;56376;53.356;-1.748;2023-01-09T09:02:49;2.97;;;1.60;;
69256;SDS011;56376;53.356;-1.748;2023-01-09T09:05:16;6.17;;;2.00;;
69256;SDS011;56376;53.356;-1.748;2023-01-09T09:07:42;5.60;;;2.20;;
69256;SDS011;56376;53.356;-1.748;2023-01-09T09:10:07;7.77;;;2.87;;
69256;SDS011;56376;53.356;-1.748;2023-01-09T09:12:33;3.43;;;1.50;;
69256;SDS011;56376;53.356;-1.748;2023-01-09T09:14:58;3.37;;;1.83;;
69256;SDS011;56376;53.356;-1.748;2023-01-09T09:17:42;4.93;;;1.35;;
69256;SDS011;56376;53.356;-1.748;2023-01-09T09:20:08;2.17;;;1.03;;
69256;SDS011;56376;53.356;-1.748;2023-01-09T09:22:34;0.70;;;0.70;;
69256;SDS011;56376;53.356;-1.748;2023-01-09T09:25:00;0.93;;;0.70;;
69256;SDS011;56376;53.356;-1.748;2023-01-09T09:27:27;4.40;;;1.10;;
69256;SDS011;56376;53.356;-1.748;2023-01-09T09:29:52;4.87;;;1.37;;
69256;SDS011;56376;53.356;-1.748;2023-01-09T09:32:18;3.97;;;1.20;;
69256;SDS011;56376;53.356;-1.748;2023-01-09T09:34:43;4.83;;;2.00;;
69256;SDS011;56376;53.356;-1.748;2023-01-09T09:37:08;3.40;;;1.30;;
69256;SDS011;56376;53.356;-1.748;2023-01-09T09:39:34;7.60;;;1.80;;
69256;SDS011;56376;53.356;-1.748;2023-01-09T09:45:47;3.43;;;1.30;;
69256;SDS011;56376;53.356;-1.748;2023-01-09T09:48:37;5.50;;;2.20;;
69256;SDS011;56376;53.356;-1.748;2023-01-09T09:56:04;3.83;;;1.27;;
69256;SDS011;56376;53.356;-1.748;2023-01-09T09:58:39;5.73;;;1.27;;
69256;SDS011;56376;53.356;-1.748;2023-01-09T10:01:06;8.23;;;1.87;;
69256;SDS011;56376;53.356;-1.748;2023-01-09T10:03:35;9.20;;;2.27;;
69256;SDS011;56376;53.356;-1.748;2023-01-09T10:06:12;12.67;;;2.73;;
69256;SDS011;56376;53.356;-1.748;2023-01-09T10:12:16;11.82;;;3.65;;
69256;SDS011;56376;53.356;-1.748;2023-01-09T10:14:20;13.43;;;2.83;;
69256;SDS011;56376;53.356;-1.748;2023-01-09T10:24:49;12.85;;;3.03;;
69256;SDS011;56376;53.356;-1.748;2023-01-09T10:27:59;13.53;;;3.33;;
69256;SDS011;56376;53.356;-1.748;2023-01-09T10:38:42;15.37;;;3.17;;
69256;SDS011;56376;53.356;-1.748;2023-01-09T10:41:21;6.37;;;2.17;;
69256;SDS011;56376;53.356;-1.748;2023-01-09T10:44:02;15.73;;;3.50;;
69256;SDS011;56376;53.356;-1.748;2023-01-09T10:46:52;12.50;;;2.73;;
69256;SDS011;56376;53.356;-1.748;2023-01-09T10:49:19;18.67;;;3.33;;
69256;SDS011;56376;53.356;-1.748;2023-01-09T10:52:31;11.20;;;2.57;;
69256;SDS011;56376;53.356;-1.748;2023-01-09T10:54:59;8.20;;;2.40;;
69256;SDS011;56376;53.356;-1.748;2023-01-09T10:57:41;16.20;;;3.37;;
69256;SDS011;56376;53.356;-1.748;2023-01-09T11:00:15;10.43;;;2.70;;
69256;SDS011;56376;53.356;-1.748;2023-01-09T11:02:46;11.73;;;2.50;;
69256;SDS011;56376;53.356;-1.748;2023-01-09T11:05:14;10.73;;;3.33;;
69256;SDS011;56376;53.356;-1.748;2023-01-09T11:07:44;11.37;;;3.30;;
69256;SDS011;56376;53.356;-1.748;2023-01-09T11:10:14;10.70;;;2.87;;
69256;SDS011;56376;53.356;-1.748;2023-01-09T11:12:40;12.77;;;2.67;;
69256;SDS011;56376;53.356;-1.748;2023-01-09T11:17:44;18.10;;;3.37;;
69256;SDS011;56376;53.356;-1.748;2023-01-09T11:22:49;13.80;;;3.83;;
69256;SDS011;56376;53.356;-1.748;2023-01-09T11:25:18;9.73;;;2.63;;
69256;SDS011;56376;53.356;-1.748;2023-01-09T11:30:26;10.80;;;2.27;;
69256;SDS011;56376;53.356;-1.748;2023-01-09T11:32:52;13.37;;;3.83;;
69256;SDS011;56376;53.356;-1.748;2023-01-09T11:35:29;11.30;;;2.53;;
69256;SDS011;56376;53.356;-1.748;2023-01-09T11:38:04;14.50;;;4.27;;
69256;SDS011;56376;53.356;-1.748;2023-01-09T11:40:38;11.63;;;3.67;;
69256;SDS011;56376;53.356;-1.748;2023-01-09T11:43:15;10.80;;;3.33;;
69256;SDS011;56376;53.356;-1.748;2023-01-09T11:45:45;12.63;;;3.08;;
69256;SDS011;56376;53.356;-1.748;2023-01-09T11:48:39;11.50;;;3.13;;
69256;SDS011;56376;53.356;-1.748;2023-01-09T11:51:20;16.57;;;2.60;;
69256;SDS011;56376;53.356;-1.748;2023-01-09T11:53:49;16.97;;;3.37;;
69256;SDS011;56376;53.356;-1.748;2023-01-09T11:56:17;16.67;;;4.10;;
69256;SDS011;56376;53.356;-1.748;2023-01-09T11:58:42;11.60;;;2.50;;
69256;SDS011;56376;53.356;-1.748;2023-01-09T12:04:01;11.57;;;2.30;;
69256;SDS011;56376;53.356;-1.748;2023-01-09T12:18:15;9.53;;;2.50;;
69256;SDS011;56376;53.356;-1.748;2023-01-09T12:20:53;10.80;;;3.07;;
69256;SDS011;56376;53.356;-1.748;2023-01-09T12:23:40;12.27;;;2.77;;
69256;SDS011;56376;53.356;-1.748;2023-01-09T12:31:54;5.40;;;2.37;;
69256;SDS011;56376;53.356;-1.748;2023-01-09T12:34:41;7.50;;;1.60;;
69256;SDS011;56376;53.356;-1.748;2023-01-09T12:45:14;16.17;;;3.43;;
69256;SDS011;56376;53.356;-1.748;2023-01-09T12:48:11;8.47;;;2.60;;
69256;SDS011;56376;53.356;-1.748;2023-01-09T12:55:56;8.73;;;3.53;;
69256;SDS011;56376;53.356;-1.748;2023-01-09T12:58:38;12.60;;;3.03;;
69256;SDS011;56376;53.356;-1.748;2023-01-09T13:01:12;12.70;;;3.33;;
69256;SDS011;56376;53.356;-1.748;2023-01-09T13:03:50;15.53;;;3.00;;
69256;SDS011;56376;53.356;-1.748;2023-01-09T13:06:19;14.83;;;3.90;;
69256;SDS011;56376;53.356;-1.748;2023-01-09T13:08:53;6.50;;;2.83;;
69256;SDS011;56376;53.356;-1.748;2023-01-09T13:11:36;13.07;;;2.83;;
69256;SDS011;56376;53.356;-1.748;2023-01-09T13:16:55;9.47;;;3.10;;
69256;SDS011;56376;53.356;-1.748;2023-01-09T13:19:30;8.87;;;2.43;;
69256;SDS011;56376;53.356;-1.748;2023-01-09T13:22:01;11.40;;;2.27;;
69256;SDS011;56376;53.356;-1.748;2023-01-09T13:27:19;14.47;;;3.60;;
69256;SDS011;56376;53.356;-1.748;2023-01-09T13:29:48;12.43;;;3.50;;
69256;SDS011;56376;53.356;-1.748;2023-01-09T13:34:52;9.37;;;3.10;;
69256;SDS011;56376;53.356;-1.748;2023-01-09T13:39:57;10.25;;;2.65;;
69256;SDS011;56376;53.356;-1.748;2023-01-09T13:42:43;11.47;;;3.33;;
69256;SDS011;56376;53.356;-1.748;2023-01-09T13:45:24;10.23;;;2.43;;
69256;SDS011;56376;53.356;-1.748;2023-01-09T13:50:42;15.00;;;3.97;;
69256;SDS011;56376;53.356;-1.748;2023-01-09T13:58:28;10.17;;;3.73;;
69256;SDS011;56376;53.356;-1.748;2023-01-09T14:01:00;9.32;;;3.80;;
69256;SDS011;56376;53.356;-1.748;2023-01-09T14:03:28;13.97;;;3.77;;
69256;SDS011;56376;53.356;-1.748;2023-01-09T14:08:23;13.13;;;3.40;;
69256;SDS011;56376;53.356;-1.748;2023-01-09T14:13:27;10.27;;;3.00;;
69256;SDS011;56376;53.356;-1.748;2023-01-09T14:16:05;7.87;;;2.40;;
69256;SDS011;56376;53.356;-1.748;2023-01-09T14:18:36;13.60;;;2.70;;
69256;SDS011;56376;53.356;-1.748;2023-01-09T14:21:07;9.97;;;3.03;;
69256;SDS011;56376;53.356;-1.748;2023-01-09T14:23:36;8.83;;;2.60;;
69256;SDS011;56376;53.356;-1.748;2023-01-09T14:26:05;10.17;;;3.93;;
69256;SDS011;56376;53.356;-1.748;2023-01-09T14:28:39;9.50;;;3.20;;
69256;SDS011;56376;53.356;-1.748;2023-01-09T14:31:05;10.53;;;2.40;;
69256;SDS011;56376;53.356;-1.748;2023-01-09T14:33:33;13.37;;;3.33;;
69256;SDS011;56376;53.356;-1.748;2023-01-09T14:38:59;15.00;;;3.20;;
69256;SDS011;56376;53.356;-1.748;2023-01-09T14:46:54;9.30;;;3.07;;
69256;SDS011;56376;53.356;-1.748;2023-01-09T14:51:59;12.90;;;3.10;;
69256;SDS011;56376;53.356;-1.748;2023-01-09T14:54:33;9.60;;;2.40;;
69256;SDS011;56376;53.356;-1.748;2023-01-09T14:57:01;12.00;;;2.80;;
69256;SDS011;56376;53.356;-1.748;2023-01-09T15:00:11;11.47;;;3.37;;
69256;SDS011;56376;53.356;-1.748;2023-01-09T15:02:41;12.10;;;3.33;;
69256;SDS011;56376;53.356;-1.748;2023-01-09T15:05:09;11.50;;;2.60;;
69256;SDS011;56376;53.356;-1.748;2023-01-09T15:07:59;11.03;;;3.07;;
69256;SDS011;56376;53.356;-1.748;2023-01-09T15:10:27;11.27;;;3.10;;
69256;SDS011;56376;53.356;-1.748;2023-01-09T15:12:56;10.17;;;2.87;;
69256;SDS011;56376;53.356;-1.748;2023-01-09T15:15:23;11.57;;;3.40;;
69256;SDS011;56376;53.356;-1.748;2023-01-09T15:18:12;9.23;;;2.57;;
69256;SDS011;56376;53.356;-1.748;2023-01-09T15:20:42;15.57;;;4.40;;
69256;SDS011;56376;53.356;-1.748;2023-01-09T15:23:29;13.97;;;2.90;;
69256;SDS011;56376;53.356;-1.748;2023-01-09T15:25:54;9.03;;;2.50;;
69256;SDS011;56376;53.356;-1.748;2023-01-09T15:28:22;8.10;;;2.53;;
69256;SDS011;56376;53.356;-1.748;2023-01-09T15:30:53;11.03;;;2.53;;
69256;SDS011;56376;53.356;-1.748;2023-01-09T15:33:26;10.23;;;3.20;;
69256;SDS011;56376;53.356;-1.748;2023-01-09T15:35:52;12.17;;;2.90;;
69256;SDS011;56376;53.356;-1.748;2023-01-09T15:38:24;12.97;;;3.13;;
69256;SDS011;56376;53.356;-1.748;2023-01-09T15:40:51;11.77;;;2.90;;
69256;SDS011;56376;53.356;-1.748;2023-01-09T15:43:19;9.13;;;2.73;;
69256;SDS011;56376;53.356;-1.748;2023-01-09T15:45:45;12.57;;;2.80;;
69256;SDS011;56376;53.356;-1.748;2023-01-09T15:48:13;11.63;;;3.70;;
69256;SDS011;56376;53.356;-1.748;2023-01-09T15:50:39;10.53;;;3.67;;
69256;SDS011;56376;53.356;-1.748;2023-01-09T15:53:10;11.57;;;3.43;;
69256;SDS011;56376;53.356;-1.748;2023-01-09T15:55:40;10.23;;;3.10;;
69256;SDS011;56376;53.356;-1.748;2023-01-09T15:58:25;12.10;;;2.90;;
69256;SDS011;56376;53.356;-1.748;2023-01-09T16:00:57;14.93;;;3.73;;
69256;SDS011;56376;53.356;-1.748;2023-01-09T16:03:29;14.20;;;3.50;;
69256;SDS011;56376;53.356;-1.748;2023-01-09T16:05:55;15.20;;;3.30;;
69256;SDS011;56376;53.356;-1.748;2023-01-09T16:08:30;10.70;;;2.90;;
69256;SDS011;56376;53.356;-1.748;2023-01-09T16:11:00;11.90;;;3.63;;
69256;SDS011;56376;53.356;-1.748;2023-01-09T16:13:29;8.97;;;2.83;;
69256;SDS011;56376;53.356;-1.748;2023-01-09T16:15:57;11.40;;;3.00;;
69256;SDS011;56376;53.356;-1.748;2023-01-09T16:18:28;14.10;;;4.50;;
69256;SDS011;56376;53.356;-1.748;2023-01-09T16:21:00;11.77;;;3.10;;
69256;SDS011;56376;53.356;-1.748;2023-01-09T16:23:29;9.32;;;3.05;;
69256;SDS011;56376;53.356;-1.748;2023-01-09T16:26:09;13.17;;;3.37;;
69256;SDS011;56376;53.356;-1.748;2023-01-09T16:28:36;11.77;;;3.07;;
69256;SDS011;56376;53.356;-1.748;2023-01-09T16:31:06;9.97;;;3.63;;
69256;SDS011;56376;53.356;-1.748;2023-01-09T16:33:48;12.77;;;3.20;;
69256;SDS011;56376;53.356;-1.748;2023-01-09T16:36:18;15.53;;;3.77;;
69256;SDS011;56376;53.356;-1.748;2023-01-09T16:38:45;10.03;;;2.87;;
69256;SDS011;56376;53.356;-1.748;2023-01-09T16:41:15;12.13;;;3.30;;
69256;SDS011;56376;53.356;-1.748;2023-01-09T16:44:00;15.10;;;3.37;;
69256;SDS011;56376;53.356;-1.748;2023-01-09T16:46:28;9.60;;;2.67;;
69256;SDS011;56376;53.356;-1.748;2023-01-09T16:48:53;10.47;;;2.50;;
69256;SDS011;56376;53.356;-1.748;2023-01-09T16:51:20;13.20;;;3.53;;
69256;SDS011;56376;53.356;-1.748;2023-01-09T16:53:47;22.00;;;6.23;;